Time;durP1;ratioP1;P1;durP2;ratioP2;P2;SDS_P1;SDS_P2;PMS_P1;PMS_P2;Temp;Humidity;BMP_temperature;BMP_pressure;BME280_temperature;BME280_humidity;BME280_pressure;Samples;Min_cycle;Max_cycle;Signal;HPM_P1;HPM_P2
2023/04/11 00:01:11;;;;;;;12.67;4.77;;;;;;;12.10;57.75;100615.84;5084672;28;20485;-68
2023/04/11 00:03:37;;;;;;;10.40;4.00;;;;;;;12.12;57.50;100608.19;5085677;28;20468;-67
2023/04/11 00:06:04;;;;;;;9.80;4.13;;;;;;;12.16;57.19;100608.38;5094332;28;20467;-67
2023/04/11 00:08:31;;;;;;;12.70;4.97;;;;;;;12.10;57.97;100610.44;5093134;28;20492;-67
2023/04/11 00:10:58;;;;;;;9.63;4.20;;;;;;;12.14;58.14;100596.25;5078309;28;20579;-67
2023/04/11 00:13:25;;;;;;;12.47;4.57;;;;;;;12.13;57.75;100600.88;5075256;28;20452;-67
2023/04/11 00:15:54;;;;;;;10.80;4.47;;;;;;;12.15;57.37;100593.19;5065089;28;20473;-67
2023/04/11 00:18:24;;;;;;;9.17;4.17;;;;;;;12.15;57.88;100592.41;5074469;28;20496;-67
2023/04/11 00:20:51;;;;;;;12.53;4.10;;;;;;;12.14;57.99;100586.19;5074112;28;20484;-67
2023/04/11 00:23:17;;;;;;;9.73;4.40;;;;;;;12.13;57.89;100571.00;5075055;28;20471;-67
2023/04/11 00:25:44;;;;;;;12.20;5.20;;;;;;;12.09;58.13;100583.59;5077262;28;20452;-67
2023/04/11 00:28:11;;;;;;;10.93;4.70;;;;;;;12.11;57.15;100573.22;5086981;28;20445;-67
2023/04/11 00:30:38;;;;;;;8.93;3.77;;;;;;;11.99;58.30;100562.91;5073566;28;20485;-67
2023/04/11 00:33:05;;;;;;;12.57;4.33;;;;;;;11.95;58.75;100561.94;5074254;28;20528;-67
2023/04/11 00:35:33;;;;;;;12.93;5.23;;;;;;;11.91;59.19;100552.84;5073552;28;21022;-67
2023/04/11 00:38:01;;;;;;;11.23;4.47;;;;;;;11.85;58.79;100556.78;5074090;28;20449;-67
2023/04/11 00:40:27;;;;;;;12.60;4.50;;;;;;;11.80;58.85;100552.25;5073755;28;20480;-67
2023/04/11 00:42:54;;;;;;;8.67;3.47;;;;;;;11.74;59.65;100545.34;5088844;28;20492;-67
2023/04/11 00:45:21;;;;;;;8.13;3.83;;;;;;;11.76;59.63;100539.59;5085302;28;20816;-67
2023/04/11 00:47:49;;;;;;;9.00;3.77;;;;;;;11.79;59.59;100536.28;5072470;28;20544;-67
2023/04/11 00:50:16;;;;;;;9.33;4.13;;;;;;;11.74;60.20;100537.22;5073015;28;20485;-66
2023/04/11 00:52:47;;;;;;;8.03;3.73;;;;;;;11.82;59.59;100536.50;5075173;28;20854;-66
2023/04/11 00:55:14;;;;;;;13.33;5.33;;;;;;;11.79;59.99;100531.66;5073924;28;20453;-67
2023/04/11 00:57:41;;;;;;;10.37;4.13;;;;;;;11.85;58.85;100540.50;5088772;28;20909;-67
2023/04/11 01:00:10;;;;;;;9.20;3.90;;;;;;;11.88;58.98;100529.03;5075889;28;20997;-67
2023/04/11 01:02:41;;;;;;;18.70;5.47;;;;;;;11.89;59.55;100522.47;5072032;28;20457;-67
2023/04/11 01:05:09;;;;;;;8.67;4.20;;;;;;;11.86;59.85;100504.91;5054229;28;20552;-67
2023/04/11 01:07:39;;;;;;;8.80;4.27;;;;;;;11.85;59.10;100497.88;5069943;28;20453;-67
2023/04/11 01:10:09;;;;;;;9.90;4.50;;;;;;;11.76;60.16;100491.56;5053682;28;20827;-67
2023/04/11 01:12:38;;;;;;;11.97;4.10;;;;;;;11.81;59.47;100491.44;5070936;28;20462;-67
2023/04/11 01:15:06;;;;;;;11.30;4.00;;;;;;;11.77;59.86;100485.00;5073978;28;20532;-67
2023/04/11 01:17:33;;;;;;;11.00;4.13;;;;;;;11.74;60.32;100493.81;5072259;28;20909;-67
2023/04/11 01:20:00;;;;;;;9.63;4.60;;;;;;;11.76;60.11;100483.41;5073611;28;20495;-67
2023/04/11 01:22:28;;;;;;;15.60;5.07;;;;;;;11.73;60.42;100486.78;5071481;28;20540;-67
2023/04/11 01:24:56;;;;;;;9.93;3.67;;;;;;;11.81;59.65;100472.44;5073765;28;20437;-67
2023/04/11 01:27:23;;;;;;;9.23;3.63;;;;;;;11.85;59.27;100464.50;5073569;28;20469;-67
2023/04/11 01:29:50;;;;;;;10.77;4.37;;;;;;;11.85;59.50;100461.78;5073359;28;20457;-67
2023/04/11 01:32:16;;;;;;;12.13;4.93;;;;;;;11.86;59.72;100471.53;5071602;28;20837;-67
2023/04/11 01:34:46;;;;;;;10.20;4.37;;;;;;;11.89;58.83;100456.53;5092534;28;20949;-68
2023/04/11 01:37:13;;;;;;;10.40;3.97;;;;;;;11.82;59.74;100446.09;5073365;28;20492;-68
2023/04/11 01:39:40;;;;;;;11.93;4.90;;;;;;;11.74;60.42;100439.53;5073138;28;20500;-67
2023/04/11 01:42:09;;;;;;;9.27;3.70;;;;;;;11.74;58.96;100441.44;5073130;28;20457;-68
2023/04/11 01:44:36;;;;;;;10.10;4.50;;;;;;;11.74;59.16;100427.88;5071971;28;20461;-68
2023/04/11 01:47:03;;;;;;;9.47;4.50;;;;;;;11.67;59.61;100428.31;5082023;28;20556;-68
2023/04/11 01:49:30;;;;;;;13.73;4.43;;;;;;;11.61;60.48;100426.84;5093485;28;20461;-68
2023/04/11 01:51:56;;;;;;;11.40;4.47;;;;;;;11.63;60.03;100433.56;5091422;28;20449;-67
2023/04/11 01:54:23;;;;;;;15.27;5.53;;;;;;;11.66;59.72;100418.56;5074106;28;21025;-67
2023/04/11 01:56:51;;;;;;;9.90;4.50;;;;;;;11.74;59.68;100419.72;5072191;28;20804;-67
2023/04/11 01:59:19;;;;;;;10.40;4.37;;;;;;;11.73;59.86;100420.81;5073435;28;20576;-67
2023/04/11 02:01:45;;;;;;;11.13;4.80;;;;;;;11.68;60.83;100404.69;5090685;28;20490;-67
2023/04/11 02:04:12;;;;;;;13.10;4.77;;;;;;;11.61;60.96;100410.56;5092979;28;20976;-68
2023/04/11 02:06:39;;;;;;;10.83;5.10;;;;;;;11.59;59.78;100404.66;5085306;28;20460;-67
2023/04/11 02:09:05;;;;;;;8.60;3.20;;;;;;;11.65;60.13;100391.78;5088295;28;20551;-67
2023/04/11 02:11:32;;;;;;;10.13;4.67;;;;;;;11.69;59.84;100390.81;5076405;28;20496;-67
2023/04/11 02:14:01;;;;;;;10.13;3.57;;;;;;;11.67;60.28;100376.75;5093379;28;20491;-68
2023/04/11 02:16:29;;;;;;;9.40;4.20;;;;;;;11.68;60.44;100374.84;5089830;28;20554;-68
2023/04/11 02:18:56;;;;;;;10.03;4.27;;;;;;;11.61;60.94;100370.69;5073123;28;20495;-68
2023/04/11 02:21:23;;;;;;;15.47;4.83;;;;;;;11.66;59.36;100368.94;5071533;28;21004;-67
2023/04/11 02:23:50;;;;;;;9.97;3.90;;;;;;;11.67;59.74;100362.41;5073014;28;20931;-67
2023/04/11 02:26:16;;;;;;;11.00;4.27;;;;;;;11.71;58.83;100360.66;5072205;28;20536;-68
2023/04/11 02:28:43;;;;;;;14.63;4.70;;;;;;;11.69;58.96;100355.56;5072136;28;20496;-68
2023/04/11 02:31:09;;;;;;;11.60;4.30;;;;;;;11.68;58.94;100362.06;5072864;28;20467;-67
2023/04/11 02:33:37;;;;;;;10.87;4.60;;;;;;;11.66;59.20;100368.94;5074360;28;21059;-68
2023/04/11 02:36:04;;;;;;;11.20;5.47;;;;;;;11.64;60.25;100366.53;5074113;28;20500;-67
2023/04/11 02:38:31;;;;;;;15.90;4.70;;;;;;;11.66;59.61;100353.47;5072048;28;20473;-67
2023/04/11 02:40:58;;;;;;;10.30;4.47;;;;;;;11.64;59.80;100352.97;5073276;28;20493;-67
2023/04/11 02:43:24;;;;;;;10.23;4.10;;;;;;;11.53;61.06;100346.22;5090428;28;20448;-67
2023/04/11 02:45:51;;;;;;;8.87;4.17;;;;;;;11.60;60.24;100341.16;5071986;28;20877;-66
2023/04/11 02:48:18;;;;;;;12.03;5.37;;;;;;;11.59;60.64;100336.81;5085698;28;20464;-67
2023/04/11 02:50:46;;;;;;;10.37;3.80;;;;;;;11.57;60.59;100339.88;5071457;28;20485;-67
2023/04/11 02:53:13;;;;;;;10.97;4.50;;;;;;;11.60;60.34;100341.16;5072708;28;20437;-67
2023/04/11 02:55:40;;;;;;;10.30;4.43;;;;;;;11.64;60.21;100325.81;5070431;28;20523;-67
2023/04/11 02:58:07;;;;;;;10.70;4.30;;;;;;;11.57;60.46;100330.94;5072738;28;20445;-67
2023/04/11 03:00:33;;;;;;;11.00;3.93;;;;;;;11.60;60.08;100338.44;5070651;28;20500;-67
2023/04/11 03:03:01;;;;;;;11.20;4.13;;;;;;;11.64;59.45;100333.97;5072379;28;20553;-67
2023/04/11 03:05:28;;;;;;;8.30;3.50;;;;;;;11.62;59.81;100328.88;5089801;28;20460;-67
2023/04/11 03:07:57;;;;;;;14.30;4.97;;;;;;;11.60;60.05;100319.47;5071709;28;20497;-67
2023/04/11 03:10:24;;;;;;;13.40;4.07;;;;;;;11.58;60.23;100321.66;5071109;28;20985;-67
2023/04/11 03:12:50;;;;;;;8.57;3.50;;;;;;;11.51;60.96;100319.44;5073366;28;20533;-67
2023/04/11 03:15:17;;;;;;;10.80;4.00;;;;;;;11.55;60.08;100319.56;5070173;28;20552;-66
2023/04/11 03:17:44;;;;;;;11.83;4.10;;;;;;;11.60;60.05;100311.31;5074898;28;20840;-67
2023/04/11 03:20:12;;;;;;;11.10;4.20;;;;;;;11.66;59.33;100307.34;5075320;28;20563;-67
2023/04/11 03:22:39;;;;;;;8.07;3.40;;;;;;;11.70;58.78;100305.59;5075580;28;20504;-67
2023/04/11 03:25:08;;;;;;;8.30;3.13;;;;;;;11.70;59.49;100308.31;5075917;28;20433;-67
2023/04/11 03:27:34;;;;;;;11.23;4.47;;;;;;;11.74;58.94;100297.63;5076009;28;20473;-67
2023/04/11 03:30:01;;;;;;;10.47;3.50;;;;;;;11.77;58.65;100302.41;5074174;28;20469;-67
2023/04/11 03:32:28;;;;;;;9.10;3.90;;;;;;;11.81;58.55;100301.47;5080396;28;20531;-68
2023/04/11 03:34:54;;;;;;;8.20;3.43;;;;;;;11.79;59.16;100311.84;5090072;28;20445;-67
2023/04/11 03:37:21;;;;;;;8.17;3.57;;;;;;;11.82;59.31;100300.41;5079291;28;20480;-67
2023/04/11 03:39:48;;;;;;;7.83;3.37;;;;;;;11.85;59.53;100290.81;5090962;28;20573;-68
2023/04/11 03:42:16;;;;;;;10.00;3.67;;;;;;;11.88;58.84;100292.09;5087845;28;20901;-67
2023/04/11 03:44:42;;;;;;;10.50;4.07;;;;;;;11.89;59.72;100299.13;5095746;28;20448;-68
2023/04/11 03:47:09;;;;;;;8.80;3.50;;;;;;;11.86;59.43;100305.97;5086483;28;20540;-67
2023/04/11 03:49:35;;;;;;;8.33;3.40;;;;;;;11.95;59.75;100306.78;5075461;28;20456;-67
2023/04/11 03:52:02;;;;;;;10.20;3.40;;;;;;;11.92;60.57;100290.34;5084925;28;20465;-67
2023/04/11 03:54:28;;;;;;;8.00;3.70;;;;;;;11.88;61.06;100295.63;5092072;28;20456;-67
2023/04/11 03:56:56;;;;;;;8.90;3.53;;;;;;;11.89;61.75;100299.91;5095696;28;20441;-67
2023/04/11 03:59:24;;;;;;;9.10;4.00;;;;;;;11.88;61.42;100284.75;5074346;28;20461;-67
2023/04/11 04:01:50;;;;;;;9.20;3.53;;;;;;;11.84;61.93;100286.50;5074330;28;20445;-67
2023/04/11 04:04:17;;;;;;;7.73;3.20;;;;;;;11.80;62.88;100297.16;5086284;28;20465;-67
2023/04/11 04:06:44;;;;;;;10.50;3.30;;;;;;;11.80;64.68;100277.38;5094763;28;20440;-67
2023/04/11 04:09:11;;;;;;;8.47;3.43;;;;;;;11.71;66.78;100287.41;5080651;28;20501;-67
2023/04/11 04:11:38;;;;;;;7.57;3.37;;;;;;;11.59;69.16;100285.28;5074265;28;20874;-66
2023/04/11 04:14:04;;;;;;;9.87;3.90;;;;;;;11.45;72.78;100290.84;5075302;28;20448;-68
2023/04/11 04:16:32;;;;;;;9.00;3.83;;;;;;;11.19;77.26;100290.72;5076851;28;20552;-70
2023/04/11 04:18:59;;;;;;;8.43;3.60;;;;;;;10.93;81.03;100308.75;5083198;28;20469;-69
2023/04/11 04:21:31;;;;;;;12.83;4.60;;;;;;;10.67;85.98;100300.47;5057796;28;20999;-68
2023/04/11 04:24:02;;;;;;;11.60;4.30;;;;;;;10.50;87.19;100295.75;5074870;28;20453;-67
2023/04/11 04:26:29;;;;;;;9.77;4.30;;;;;;;10.25;90.33;100270.88;5073966;28;20927;-67
2023/04/11 04:29:03;;;;;;;9.73;3.83;;;;;;;10.17;92.19;100266.16;5083265;28;20511;-67
2023/04/11 04:31:32;;;;;;;8.00;3.63;;;;;;;10.10;93.82;100253.06;5080597;28;20567;-68
2023/04/11 04:34:02;;;;;;;9.33;3.73;;;;;;;9.98;96.28;100249.28;5075014;28;20491;-67
2023/04/11 04:36:29;;;;;;;9.53;3.43;;;;;;;10.00;97.32;100268.69;5085826;28;20495;-68
2023/04/11 04:39:00;;;;;;;11.40;4.13;;;;;;;9.93;98.66;100266.44;5075818;28;20556;-68
2023/04/11 04:41:35;;;;;;;8.37;3.10;;;;;;;9.90;100.00;100263.53;5081551;28;20500;-67
2023/04/11 04:44:03;;;;;;;12.13;3.67;;;;;;;9.84;100.00;100258.22;5077711;28;20459;-68
2023/04/11 04:46:35;;;;;;;11.03;4.10;;;;;;;9.80;100.00;100251.03;5073776;28;20461;-68
2023/04/11 04:49:03;;;;;;;10.87;3.80;;;;;;;9.81;100.00;100253.41;5074566;28;20530;-68
2023/04/11 04:51:30;;;;;;;11.10;3.60;;;;;;;9.80;100.00;100259.13;5092328;28;20572;-68
2023/04/11 04:53:58;;;;;;;11.70;5.03;;;;;;;9.81;100.00;100263.44;5078918;28;20466;-71
2023/04/11 04:56:25;;;;;;;11.10;3.97;;;;;;;9.74;100.00;100250.34;5091900;28;20455;-67
2023/04/11 04:58:51;;;;;;;7.50;3.47;;;;;;;9.80;100.00;100253.72;5073667;28;20947;-67
2023/04/11 05:01:19;;;;;;;10.67;4.27;;;;;;;9.79;100.00;100247.53;5079369;28;20484;-67
2023/04/11 05:03:49;;;;;;;8.90;3.80;;;;;;;9.75;100.00;100246.53;5094183;28;20938;-67
2023/04/11 05:06:17;;;;;;;12.17;4.43;;;;;;;9.73;100.00;100256.03;5087400;28;20552;-67
2023/04/11 05:08:44;;;;;;;10.00;4.10;;;;;;;9.74;100.00;100249.50;5080808;28;20488;-67
2023/04/11 05:11:10;;;;;;;11.03;4.80;;;;;;;9.72;100.00;100247.13;5088090;28;20480;-67
2023/04/11 05:13:37;;;;;;;11.30;4.37;;;;;;;9.76;100.00;100244.63;5075139;28;20461;-68
2023/04/11 05:16:04;;;;;;;9.40;3.93;;;;;;;9.76;100.00;100242.72;5072933;28;20829;-67
2023/04/11 05:18:30;;;;;;;12.57;4.67;;;;;;;9.70;100.00;100243.94;5089509;28;20492;-70
2023/04/11 05:20:57;;;;;;;11.00;4.33;;;;;;;9.70;100.00;100235.81;5090473;28;20483;-71
2023/04/11 05:23:25;;;;;;;13.77;3.70;;;;;;;9.66;100.00;100229.41;5089348;28;21020;-71
2023/04/11 05:25:51;;;;;;;12.37;4.93;;;;;;;9.64;100.00;100233.53;5093188;28;20490;-67
2023/04/11 05:28:18;;;;;;;10.73;4.60;;;;;;;9.60;100.00;100246.84;5073136;28;20526;-68
2023/04/11 05:30:45;;;;;;;12.93;4.67;;;;;;;9.54;100.00;100254.25;5072876;28;20457;-68
2023/04/11 05:33:13;;;;;;;12.67;4.70;;;;;;;9.52;100.00;100242.16;5069059;28;20446;-68
2023/04/11 05:35:40;;;;;;;10.60;4.77;;;;;;;9.50;100.00;100271.38;5072781;28;20454;-68
2023/04/11 05:38:08;;;;;;;9.07;4.17;;;;;;;9.46;100.00;100264.97;5088255;28;20455;-68
2023/04/11 05:40:36;;;;;;;12.13;3.93;;;;;;;9.47;100.00;100266.56;5090655;28;20485;-68
2023/04/11 05:43:03;;;;;;;14.33;5.33;;;;;;;9.48;100.00;100254.69;5080273;28;20819;-68
2023/04/11 05:45:29;;;;;;;10.20;4.60;;;;;;;9.51;100.00;100260.25;5073379;28;20446;-69
2023/04/11 05:47:56;;;;;;;10.40;4.57;;;;;;;9.54;100.00;100259.66;5074376;28;20553;-67
2023/04/11 05:50:23;;;;;;;13.73;4.80;;;;;;;9.56;100.00;100260.19;5072024;28;20495;-66
2023/04/11 05:52:50;;;;;;;11.10;4.23;;;;;;;9.52;100.00;100259.19;5073077;28;20456;-67
2023/04/11 05:55:17;;;;;;;14.47;6.07;;;;;;;9.49;100.00;100267.09;5074233;28;20465;-67
2023/04/11 05:57:45;;;;;;;14.23;4.90;;;;;;;9.54;100.00;100261.56;5076933;28;20504;-67
2023/04/11 06:00:15;;;;;;;9.10;4.30;;;;;;;9.54;100.00;100261.56;5071971;28;20683;-66
2023/04/11 06:02:42;;;;;;;14.83;5.20;;;;;;;9.57;100.00;100266.38;5072263;28;20943;-68
2023/04/11 06:05:10;;;;;;;12.40;4.27;;;;;;;9.63;100.00;100259.75;5073178;28;20495;-71
2023/04/11 06:07:38;;;;;;;10.80;4.93;;;;;;;9.68;100.00;100256.94;5072631;28;20448;-69
2023/04/11 06:10:06;;;;;;;14.40;4.73;;;;;;;9.73;100.00;100247.91;5091219;28;20476;-68
2023/04/11 06:12:32;;;;;;;16.30;4.30;;;;;;;9.81;100.00;100249.91;5084814;28;20543;-69
2023/04/11 06:15:00;;;;;;;13.77;5.10;;;;;;;9.85;100.00;100261.72;5092914;28;20971;-69
2023/04/11 06:17:27;;;;;;;11.77;5.00;;;;;;;9.81;100.00;100248.00;5087894;28;20533;-69
2023/04/11 06:19:54;;;;;;;11.27;4.83;;;;;;;9.82;100.00;100252.31;5093141;28;20467;-69
2023/04/11 06:22:20;;;;;;;12.53;5.23;;;;;;;9.80;100.00;100249.13;5086390;28;20539;-69
2023/04/11 06:24:47;;;;;;;14.27;5.70;;;;;;;9.83;100.00;100253.94;5088543;28;20485;-69
2023/04/11 06:27:14;;;;;;;14.23;4.70;;;;;;;9.81;100.00;100253.41;5071163;28;20461;-69
2023/04/11 06:29:42;;;;;;;13.37;5.30;;;;;;;9.80;100.00;100253.72;5090284;28;20553;-68
2023/04/11 06:32:11;;;;;;;14.97;5.67;;;;;;;9.80;100.00;100249.13;5086916;28;20460;-68
2023/04/11 06:34:38;;;;;;;11.00;4.83;;;;;;;9.79;100.00;100252.13;5076869;28;20877;-69
2023/04/11 06:37:06;;;;;;;11.47;5.10;;;;;;;9.78;100.00;100245.09;5071829;28;21241;-68
2023/04/11 06:39:33;;;;;;;10.90;4.43;;;;;;;9.78;100.00;100254.03;5072914;28;20452;-68
2023/04/11 06:41:59;;;;;;;13.13;5.37;;;;;;;9.84;100.00;100244.69;5078792;28;20574;-69
2023/04/11 06:44:26;;;;;;;12.60;5.07;;;;;;;9.86;100.00;100242.47;5072989;28;20531;-69
2023/04/11 06:46:53;;;;;;;12.87;5.20;;;;;;;9.89;100.00;100246.50;5078039;28;20517;-68
2023/04/11 06:49:22;;;;;;;12.80;4.73;;;;;;;9.97;100.00;100250.38;5093192;28;20523;-68
2023/04/11 06:51:49;;;;;;;10.37;4.53;;;;;;;9.97;100.00;100253.88;5086353;28;20493;-68
2023/04/11 06:54:16;;;;;;;13.50;4.37;;;;;;;9.94;100.00;100248.28;5076743;28;20520;-68
2023/04/11 06:56:43;;;;;;;12.57;5.37;;;;;;;9.99;100.00;100243.56;5084217;28;20540;-69
2023/04/11 06:59:10;;;;;;;12.00;5.20;;;;;;;10.05;100.00;100261.28;5088918;28;20445;-68
2023/04/11 07:01:38;;;;;;;16.60;4.60;;;;;;;10.11;100.00;100267.38;5087571;28;20921;-67
2023/04/11 07:04:05;;;;;;;18.53;4.90;;;;;;;10.14;100.00;100264.06;5084144;28;20465;-67
2023/04/11 07:06:34;;;;;;;10.07;4.50;;;;;;;10.14;100.00;100274.91;5081072;28;20452;-68
2023/04/11 07:09:00;;;;;;;11.30;6.00;;;;;;;10.19;100.00;100258.53;5096790;28;20440;-68
2023/04/11 07:11:28;;;;;;;12.57;5.63;;;;;;;10.23;100.00;100256.03;5091597;28;20988;-67
2023/04/11 07:13:55;;;;;;;10.50;5.10;;;;;;;10.27;100.00;100263.25;5079322;28;20453;-67
2023/04/11 07:16:22;;;;;;;17.53;4.80;;;;;;;10.33;100.00;100267.44;5074058;28;20853;-67
2023/04/11 07:18:49;;;;;;;10.83;5.10;;;;;;;10.41;100.00;100274.03;5077495;28;20547;-67
2023/04/11 07:21:15;;;;;;;12.80;5.40;;;;;;;10.45;100.00;100268.81;5094003;28;20492;-67
2023/04/11 07:23:43;;;;;;;10.93;4.60;;;;;;;10.48;100.00;100268.97;5074183;28;20457;-67
2023/04/11 07:26:10;;;;;;;11.70;5.37;;;;;;;10.47;100.00;100266.56;5076008;28;20468;-67
2023/04/11 07:28:38;;;;;;;16.20;5.40;;;;;;;10.44;100.00;100278.81;5077650;28;20461;-67
2023/04/11 07:31:06;;;;;;;13.50;4.80;;;;;;;10.45;100.00;100283.13;5082710;28;20472;-67
2023/04/11 07:33:33;;;;;;;10.43;4.80;;;;;;;10.48;100.00;100277.09;5083796;28;20475;-68
2023/04/11 07:36:00;;;;;;;10.10;5.27;;;;;;;10.52;100.00;100279.97;5080829;28;20994;-67
2023/04/11 07:38:29;;;;;;;10.70;4.70;;;;;;;10.54;100.00;100275.06;5068905;28;20438;-67
2023/04/11 07:40:59;;;;;;;13.20;5.43;;;;;;;10.69;100.00;100276.59;5089871;28;20488;-67
2023/04/11 07:43:27;;;;;;;10.97;4.30;;;;;;;10.79;100.00;100285.25;5093323;28;20545;-67
2023/04/11 07:45:55;;;;;;;9.20;3.73;;;;;;;10.89;100.00;100272.56;5077182;28;20456;-67
2023/04/11 07:48:22;;;;;;;11.37;4.17;;;;;;;10.88;100.00;100279.09;5074888;28;20536;-68
2023/04/11 07:50:49;;;;;;;12.97;5.30;;;;;;;10.88;100.00;100282.59;5069121;28;20486;-67
2023/04/11 07:53:16;;;;;;;13.33;5.10;;;;;;;10.74;100.00;100298.13;5093500;28;20453;-68
2023/04/11 07:55:42;;;;;;;10.17;4.33;;;;;;;10.74;100.00;100303.56;5072969;28;20452;-67
2023/04/11 07:58:10;;;;;;;14.13;5.20;;;;;;;10.66;100.00;100313.22;5073959;28;20907;-67
2023/04/11 08:00:37;;;;;;;11.80;3.90;;;;;;;10.39;100.00;100314.13;5075335;28;20830;-67
2023/04/11 08:03:05;;;;;;;16.60;4.17;;;;;;;10.23;100.00;100319.06;5071963;28;20457;-67
2023/04/11 08:05:33;;;;;;;9.60;3.13;;;;;;;9.96;100.00;100319.09;5062836;28;20869;-67
2023/04/11 08:08:01;;;;;;;8.40;2.93;;;;;;;9.76;100.00;100312.25;5068682;28;21187;-67
2023/04/11 08:10:28;;;;;;;6.63;2.27;;;;;;;9.62;100.00;100308.75;5073810;28;20489;-67
2023/04/11 08:12:55;;;;;;;7.60;2.17;;;;;;;9.50;100.00;100310.03;5095269;28;20437;-67
2023/04/11 08:15:23;;;;;;;5.60;1.60;;;;;;;9.42;100.00;100316.13;5093695;28;20877;-67
2023/04/11 08:17:50;;;;;;;6.10;1.93;;;;;;;9.39;100.00;100313.25;5089745;28;20465;-69
2023/04/11 08:20:18;;;;;;;9.10;2.03;;;;;;;9.32;100.00;100305.53;5079994;28;20902;-68
2023/04/11 08:22:45;;;;;;;7.87;1.63;;;;;;;9.18;100.00;100313.63;5074253;28;20513;-68
2023/04/11 08:25:13;;;;;;;10.10;1.87;;;;;;;9.16;100.00;100315.81;5074230;28;20461;-68
2023/04/11 08:27:39;;;;;;;8.03;2.07;;;;;;;9.20;100.00;100306.00;5093002;28;20524;-68
2023/04/11 08:30:08;;;;;;;6.00;1.57;;;;;;;9.25;100.00;100316.75;5083244;28;20561;-68
2023/04/11 08:32:36;;;;;;;5.57;1.70;;;;;;;9.31;100.00;100312.84;5074426;28;20523;-70
2023/04/11 08:35:02;;;;;;;6.53;1.50;;;;;;;9.31;100.00;100320.16;5074869;28;20459;-70
2023/04/11 08:37:30;;;;;;;6.60;2.20;;;;;;;9.41;100.00;100317.25;5072310;28;20544;-67
2023/04/11 08:39:56;;;;;;;9.57;2.70;;;;;;;9.50;100.00;100320.84;5075522;28;20572;-66
2023/04/11 08:42:23;;;;;;;16.93;2.97;;;;;;;9.57;100.00;100312.34;5081755;28;20491;-67
2023/04/11 08:44:53;;;;;;;5.60;1.70;;;;;;;9.58;100.00;100314.75;5072777;28;20458;-67
2023/04/11 08:47:20;;;;;;;7.97;2.70;;;;;;;9.54;100.00;100326.47;5076523;28;20460;-67
2023/04/11 08:49:48;;;;;;;6.83;1.60;;;;;;;9.57;100.00;100331.28;5092854;28;20480;-67
2023/04/11 08:52:16;;;;;;;5.37;1.50;;;;;;;9.64;100.00;100333.56;5072856;28;20481;-67
2023/04/11 08:54:42;;;;;;;5.30;1.37;;;;;;;9.70;100.00;100335.88;5071628;28;20462;-67
2023/04/11 08:57:13;;;;;;;5.93;1.50;;;;;;;9.83;100.00;100328.88;5073919;28;20437;-68
2023/04/11 08:59:48;;;;;;;5.30;1.73;;;;;;;10.04;100.00;100323.81;5074554;28;20422;-67
2023/04/11 09:02:15;;;;;;;5.50;1.77;;;;;;;10.18;100.00;100324.59;5074513;28;20509;-67
2023/04/11 09:04:43;;;;;;;6.10;2.17;;;;;;;10.43;100.00;100336.78;5074457;28;20536;-67
2023/04/11 09:07:11;;;;;;;6.97;2.10;;;;;;;10.61;100.00;100321.47;5074084;28;20819;-67
2023/04/11 09:09:38;;;;;;;5.80;1.30;;;;;;;10.64;100.00;100320.84;5074038;28;20438;-67
2023/04/11 09:12:05;;;;;;;8.00;2.00;;;;;;;10.74;100.00;100320.59;5074100;28;20486;-67
2023/04/11 09:14:32;;;;;;;4.87;1.47;;;;;;;10.86;100.00;100312.72;5072760;28;20453;-67
2023/04/11 09:17:00;;;;;;;7.83;1.93;;;;;;;11.01;99.83;100318.84;5074002;28;20437;-69
2023/04/11 09:19:28;;;;;;;7.00;2.10;;;;;;;11.19;98.72;100319.75;5074037;28;20437;-69
2023/04/11 09:21:59;;;;;;;5.13;1.43;;;;;;;11.27;98.05;100319.00;5074713;28;20489;-67
2023/04/11 09:24:28;;;;;;;8.50;2.30;;;;;;;11.35;95.51;100316.31;5074871;28;20437;-68
2023/04/11 09:27:09;;;;;;;9.30;1.50;;;;;;;11.41;95.50;100318.88;5074498;28;20441;-68
2023/04/11 09:29:37;;;;;;;6.07;1.37;;;;;;;11.46;92.98;100305.19;5074307;28;20424;-68
2023/04/11 09:32:04;;;;;;;6.37;1.20;;;;;;;11.59;93.35;100304.28;5074287;28;20437;-68
2023/04/11 09:34:31;;;;;;;7.07;1.20;;;;;;;11.75;91.55;100310.88;5074703;28;20488;-68
2023/04/11 09:36:58;;;;;;;4.53;0.93;;;;;;;11.81;89.69;100314.22;5078526;28;20472;-67
2023/04/11 09:39:27;;;;;;;5.50;1.47;;;;;;;11.90;89.27;100314.28;5072635;28;20456;-66
2023/04/11 09:41:55;;;;;;;7.90;1.60;;;;;;;11.84;84.38;100319.06;5071957;28;20485;-67
2023/04/11 09:44:35;;;;;;;6.83;1.50;;;;;;;11.66;86.18;100320.91;5076863;28;20453;-66
2023/04/11 09:47:02;;;;;;;5.97;1.30;;;;;;;11.53;86.10;100311.75;5071748;28;20465;-67
2023/04/11 09:49:29;;;;;;;6.93;0.90;;;;;;;11.56;88.74;100318.50;5071796;28;20496;-66
2023/04/11 09:51:57;;;;;;;8.03;1.53;;;;;;;11.65;89.65;100330.16;5072535;28;20456;-66
2023/04/11 09:54:26;;;;;;;8.30;1.40;;;;;;;11.79;85.17;100325.41;5073450;28;20441;-67
2023/04/11 09:56:52;;;;;;;4.47;1.10;;;;;;;11.88;84.07;100324.66;5086377;28;20531;-67
2023/04/11 09:59:21;;;;;;;4.80;1.00;;;;;;;12.01;83.90;100326.44;5090038;28;20445;-66
2023/04/11 10:01:50;;;;;;;5.90;1.30;;;;;;;11.96;82.43;100321.19;5072314;28;20544;-68
2023/04/11 10:04:16;;;;;;;6.97;1.17;;;;;;;12.04;84.79;100314.94;5076614;28;20449;-68
2023/04/11 10:06:53;;;;;;;8.57;2.00;;;;;;;11.90;83.64;100317.00;5092257;28;21004;-67
2023/04/11 10:09:22;;;;;;;7.53;1.63;;;;;;;11.98;84.05;100316.22;5077741;28;20543;-68
2023/04/11 10:11:49;;;;;;;5.20;0.97;;;;;;;11.98;79.66;100332.50;5089305;28;20956;-67
2023/04/11 10:14:44;;;;;;;6.10;1.20;;;;;;;11.98;79.15;100327.06;5076664;28;20470;-68
2023/04/11 10:17:13;;;;;;;11.53;1.63;;;;;;;12.22;79.62;100318.47;5073604;28;20495;-68
2023/04/11 10:19:40;;;;;;;4.30;0.70;;;;;;;12.05;74.89;100328.22;5072720;28;20444;-68
2023/04/11 10:22:07;;;;;;;4.77;1.10;;;;;;;12.06;74.87;100331.72;5071713;28;20495;-67
2023/04/11 10:24:33;;;;;;;5.47;1.20;;;;;;;12.07;75.66;100304.25;5072740;28;20447;-68
2023/04/11 10:27:02;;;;;;;5.17;1.00;;;;;;;12.14;76.98;100303.00;5073087;28;20529;-68
2023/04/11 10:29:51;;;;;;;5.10;1.30;;;;;;;12.34;75.78;100308.56;5072688;28;20990;-68
2023/04/11 10:32:20;;;;;;;9.33;1.67;;;;;;;12.53;76.44;100304.75;5073153;28;20483;-67
2023/04/11 10:35:22;;;;;;;5.53;1.00;;;;;;;12.86;71.58;100302.31;5073219;28;20451;-67
2023/04/11 10:37:49;;;;;;;5.83;1.30;;;;;;;13.03;70.55;100299.53;5072845;28;20795;-68
2023/04/11 10:40:19;;;;;;;4.70;0.93;;;;;;;13.14;68.36;100295.34;5072472;28;20469;-68
2023/04/11 10:42:46;;;;;;;4.57;0.93;;;;;;;13.19;67.88;100309.88;5072681;28;20484;-68
2023/04/11 10:45:39;;;;;;;8.93;1.30;;;;;;;13.17;70.68;100312.94;5072865;28;20511;-68
2023/04/11 10:48:10;;;;;;;5.43;1.20;;;;;;;12.98;71.95;100313.31;5069159;28;20499;-68
2023/04/11 10:50:40;;;;;;;6.40;1.10;;;;;;;12.36;81.36;100313.72;5072331;28;20550;-68
2023/04/11 10:53:13;;;;;;;4.30;0.80;;;;;;;11.96;87.47;100300.25;5072797;28;20433;-68
2023/04/11 10:55:47;;;;;;;4.47;0.93;;;;;;;11.65;88.56;100296.81;5072445;28;20434;-67
2023/04/11 10:58:18;;;;;;;6.30;1.30;;;;;;;11.33;86.00;100296.88;5072451;28;20460;-67
2023/04/11 11:01:24;;;;;;;5.33;0.93;;;;;;;11.22;85.81;100295.53;5072961;28;20468;-68
2023/04/11 11:03:55;;;;;;;9.80;0.80;;;;;;;11.24;80.28;100293.28;5072737;28;20516;-68
2023/04/11 11:06:22;;;;;;;5.10;0.60;;;;;;;11.29;81.51;100298.59;5072467;28;20902;-68
2023/04/11 11:08:49;;;;;;;4.20;0.57;;;;;;;11.46;79.68;100291.63;5072816;28;20443;-67
2023/04/11 11:11:18;;;;;;;4.83;0.60;;;;;;;11.75;78.81;100297.31;5071865;28;20886;-67
2023/04/11 11:13:46;;;;;;;4.90;1.00;;;;;;;12.27;76.06;100299.34;5072288;28;20473;-68
2023/04/11 11:16:15;;;;;;;7.13;1.10;;;;;;;12.59;77.11;100306.97;5063372;28;20438;-68
2023/04/11 11:18:45;;;;;;;4.67;1.10;;;;;;;13.04;75.26;100306.56;5052284;28;20446;-68
2023/04/11 11:21:15;;;;;;;8.10;1.17;;;;;;;13.77;70.27;100311.91;5051582;28;20982;-68
2023/04/11 11:23:53;;;;;;;4.73;0.90;;;;;;;13.40;68.51;100312.72;5052641;28;20482;-68